sensor_id;sensor_type;location;lat;lon;timestamp;temperature;humidity
44166;DHT22;30476;53.468;9.826;2024-01-30T00:01:17;8.40;99.90
44166;DHT22;30476;53.468;9.826;2024-01-30T00:03:43;8.40;99.90
44166;DHT22;30476;53.468;9.826;2024-01-30T00:06:09;8.40;99.90
44166;DHT22;30476;53.468;9.826;2024-01-30T00:08:35;8.50;99.90
44166;DHT22;30476;53.468;9.826;2024-01-30T00:11:00;8.50;99.90
44166;DHT22;30476;53.468;9.826;2024-01-30T00:13:26;8.50;99.90
44166;DHT22;30476;53.468;9.826;2024-01-30T00:15:52;8.50;99.90
44166;DHT22;30476;53.468;9.826;2024-01-30T00:18:19;8.60;99.90
44166;DHT22;30476;53.468;9.826;2024-01-30T00:20:45;8.60;99.90
44166;DHT22;30476;53.468;9.826;2024-01-30T00:23:11;8.60;99.90
44166;DHT22;30476;53.468;9.826;2024-01-30T00:25:36;8.50;99.90
44166;DHT22;30476;53.468;9.826;2024-01-30T00:28:02;8.60;99.90
44166;DHT22;30476;53.468;9.826;2024-01-30T00:30:28;8.60;99.90
44166;DHT22;30476;53.468;9.826;2024-01-30T00:32:54;8.50;99.90
44166;DHT22;30476;53.468;9.826;2024-01-30T00:35:20;8.60;99.90
44166;DHT22;30476;53.468;9.826;2024-01-30T00:37:47;8.60;99.90
44166;DHT22;30476;53.468;9.826;2024-01-30T00:40:13;8.60;99.90
44166;DHT22;30476;53.468;9.826;2024-01-30T00:42:42;8.70;99.90
44166;DHT22;30476;53.468;9.826;2024-01-30T00:45:15;8.70;99.90
44166;DHT22;30476;53.468;9.826;2024-01-30T00:47:41;8.70;99.90
44166;DHT22;30476;53.468;9.826;2024-01-30T00:50:07;8.60;99.90
44166;DHT22;30476;53.468;9.826;2024-01-30T00:52:33;8.70;99.90
44166;DHT22;30476;53.468;9.826;2024-01-30T00:54:59;8.60;99.90
44166;DHT22;30476;53.468;9.826;2024-01-30T00:57:25;8.60;99.90
44166;DHT22;30476;53.468;9.826;2024-01-30T00:59:52;8.60;99.90
44166;DHT22;30476;53.468;9.826;2024-01-30T01:02:18;8.60;99.90
44166;DHT22;30476;53.468;9.826;2024-01-30T01:04:44;8.60;99.90
44166;DHT22;30476;53.468;9.826;2024-01-30T01:07:11;8.60;99.90
44166;DHT22;30476;53.468;9.826;2024-01-30T01:09:37;8.60;99.90
44166;DHT22;30476;53.468;9.826;2024-01-30T01:12:03;8.60;99.90
44166;DHT22;30476;53.468;9.826;2024-01-30T01:14:29;8.60;99.90
44166;DHT22;30476;53.468;9.826;2024-01-30T01:16:55;8.60;99.90
44166;DHT22;30476;53.468;9.826;2024-01-30T01:19:21;8.60;99.90
44166;DHT22;30476;53.468;9.826;2024-01-30T01:21:47;8.60;99.90
44166;DHT22;30476;53.468;9.826;2024-01-30T01:24:13;8.50;99.90
44166;DHT22;30476;53.468;9.826;2024-01-30T01:26:39;8.50;99.90
44166;DHT22;30476;53.468;9.826;2024-01-30T01:29:06;8.60;99.90
44166;DHT22;30476;53.468;9.826;2024-01-30T01:31:38;8.60;99.90
44166;DHT22;30476;53.468;9.826;2024-01-30T01:34:11;8.60;99.90
44166;DHT22;30476;53.468;9.826;2024-01-30T01:36:37;8.60;99.90
44166;DHT22;30476;53.468;9.826;2024-01-30T01:39:03;8.60;99.90
44166;DHT22;30476;53.468;9.826;2024-01-30T01:41:33;8.60;99.90
44166;DHT22;30476;53.468;9.826;2024-01-30T01:43:59;8.50;99.90
44166;DHT22;30476;53.468;9.826;2024-01-30T01:46:30;8.60;99.90
44166;DHT22;30476;53.468;9.826;2024-01-30T01:48:58;8.60;99.90
44166;DHT22;30476;53.468;9.826;2024-01-30T01:51:27;8.60;99.90
44166;DHT22;30476;53.468;9.826;2024-01-30T01:53:57;8.50;99.90
44166;DHT22;30476;53.468;9.826;2024-01-30T01:56:24;8.50;99.90
44166;DHT22;30476;53.468;9.826;2024-01-30T01:58:54;8.50;99.90
44166;DHT22;30476;53.468;9.826;2024-01-30T02:01:21;8.50;99.90
44166;DHT22;30476;53.468;9.826;2024-01-30T02:03:47;8.50;99.90
44166;DHT22;30476;53.468;9.826;2024-01-30T02:06:14;8.50;99.90
44166;DHT22;30476;53.468;9.826;2024-01-30T02:08:40;8.50;99.90
44166;DHT22;30476;53.468;9.826;2024-01-30T02:11:06;8.60;99.90
44166;DHT22;30476;53.468;9.826;2024-01-30T02:13:32;8.60;99.90
44166;DHT22;30476;53.468;9.826;2024-01-30T02:15:58;8.60;99.90
44166;DHT22;30476;53.468;9.826;2024-01-30T02:18:24;8.60;99.90
44166;DHT22;30476;53.468;9.826;2024-01-30T02:20:53;8.60;99.90
44166;DHT22;30476;53.468;9.826;2024-01-30T02:23:20;8.60;99.90
44166;DHT22;30476;53.468;9.826;2024-01-30T02:25:46;8.60;99.90
44166;DHT22;30476;53.468;9.826;2024-01-30T02:28:12;8.60;99.90
44166;DHT22;30476;53.468;9.826;2024-01-30T02:30:39;8.70;99.90
44166;DHT22;30476;53.468;9.826;2024-01-30T02:33:05;8.60;99.90
44166;DHT22;30476;53.468;9.826;2024-01-30T02:35:31;8.60;99.90
44166;DHT22;30476;53.468;9.826;2024-01-30T02:37:57;8.70;99.90
44166;DHT22;30476;53.468;9.826;2024-01-30T02:40:23;8.60;99.90
44166;DHT22;30476;53.468;9.826;2024-01-30T02:42:48;8.60;99.90
44166;DHT22;30476;53.468;9.826;2024-01-30T02:45:14;8.60;99.90
44166;DHT22;30476;53.468;9.826;2024-01-30T02:47:40;8.60;99.90
44166;DHT22;30476;53.468;9.826;2024-01-30T02:50:06;8.60;99.90
44166;DHT22;30476;53.468;9.826;2024-01-30T02:52:32;8.70;99.90
44166;DHT22;30476;53.468;9.826;2024-01-30T02:54:58;8.70;99.90
44166;DHT22;30476;53.468;9.826;2024-01-30T02:57:24;8.70;99.90
44166;DHT22;30476;53.468;9.826;2024-01-30T02:59:49;8.70;99.90
44166;DHT22;30476;53.468;9.826;2024-01-30T03:02:15;8.70;99.90
44166;DHT22;30476;53.468;9.826;2024-01-30T03:04:41;8.70;99.90
44166;DHT22;30476;53.468;9.826;2024-01-30T03:07:08;8.70;99.90
44166;DHT22;30476;53.468;9.826;2024-01-30T03:09:34;8.70;99.90
44166;DHT22;30476;53.468;9.826;2024-01-30T03:11:59;8.70;99.90
44166;DHT22;30476;53.468;9.826;2024-01-30T03:14:26;8.70;99.90
44166;DHT22;30476;53.468;9.826;2024-01-30T03:16:52;8.70;99.90
44166;DHT22;30476;53.468;9.826;2024-01-30T03:19:18;8.70;99.90
44166;DHT22;30476;53.468;9.826;2024-01-30T03:21:44;8.70;99.90
44166;DHT22;30476;53.468;9.826;2024-01-30T03:24:10;8.70;99.90
44166;DHT22;30476;53.468;9.826;2024-01-30T03:26:36;8.60;99.90
44166;DHT22;30476;53.468;9.826;2024-01-30T03:29:01;8.60;99.90
44166;DHT22;30476;53.468;9.826;2024-01-30T03:31:27;8.60;99.90
44166;DHT22;30476;53.468;9.826;2024-01-30T03:33:53;8.50;99.90
44166;DHT22;30476;53.468;9.826;2024-01-30T03:36:19;8.50;99.90
44166;DHT22;30476;53.468;9.826;2024-01-30T03:38:45;8.50;99.90
44166;DHT22;30476;53.468;9.826;2024-01-30T03:41:11;8.50;99.90
44166;DHT22;30476;53.468;9.826;2024-01-30T03:43:36;8.50;99.90
44166;DHT22;30476;53.468;9.826;2024-01-30T03:46:03;8.50;99.90
44166;DHT22;30476;53.468;9.826;2024-01-30T03:48:29;8.50;99.90
44166;DHT22;30476;53.468;9.826;2024-01-30T03:50:55;8.40;99.90
44166;DHT22;30476;53.468;9.826;2024-01-30T03:53:21;8.40;99.90
44166;DHT22;30476;53.468;9.826;2024-01-30T03:55:47;8.40;99.90
44166;DHT22;30476;53.468;9.826;2024-01-30T03:58:12;8.40;99.90
44166;DHT22;30476;53.468;9.826;2024-01-30T04:00:38;8.40;99.90
44166;DHT22;30476;53.468;9.826;2024-01-30T04:03:04;8.40;99.90
44166;DHT22;30476;53.468;9.826;2024-01-30T04:05:30;8.40;99.90
44166;DHT22;30476;53.468;9.826;2024-01-30T04:07:56;8.40;99.90
44166;DHT22;30476;53.468;9.826;2024-01-30T04:10:22;8.40;99.90
44166;DHT22;30476;53.468;9.826;2024-01-30T04:12:48;8.40;99.90
44166;DHT22;30476;53.468;9.826;2024-01-30T04:15:14;8.50;99.90
44166;DHT22;30476;53.468;9.826;2024-01-30T04:17:40;8.40;99.90
44166;DHT22;30476;53.468;9.826;2024-01-30T04:20:06;8.40;99.90
44166;DHT22;30476;53.468;9.826;2024-01-30T04:22:32;8.40;99.90
44166;DHT22;30476;53.468;9.826;2024-01-30T04:24:57;8.40;99.90
44166;DHT22;30476;53.468;9.826;2024-01-30T04:27:23;8.40;99.90
44166;DHT22;30476;53.468;9.826;2024-01-30T04:29:49;8.40;99.90
44166;DHT22;30476;53.468;9.826;2024-01-30T04:32:15;8.40;99.90
44166;DHT22;30476;53.468;9.826;2024-01-30T04:34:40;8.40;99.90
44166;DHT22;30476;53.468;9.826;2024-01-30T04:37:06;8.40;99.90
44166;DHT22;30476;53.468;9.826;2024-01-30T04:39:35;8.30;99.90
44166;DHT22;30476;53.468;9.826;2024-01-30T04:42:00;8.30;99.90
44166;DHT22;30476;53.468;9.826;2024-01-30T04:44:26;8.30;99.90
44166;DHT22;30476;53.468;9.826;2024-01-30T04:46:52;8.30;99.90
44166;DHT22;30476;53.468;9.826;2024-01-30T04:49:18;8.30;99.90
44166;DHT22;30476;53.468;9.826;2024-01-30T04:51:44;8.30;99.90
44166;DHT22;30476;53.468;9.826;2024-01-30T04:54:09;8.30;99.90
44166;DHT22;30476;53.468;9.826;2024-01-30T04:56:35;8.30;99.90
44166;DHT22;30476;53.468;9.826;2024-01-30T04:59:02;8.30;99.90
44166;DHT22;30476;53.468;9.826;2024-01-30T05:01:28;8.30;99.90
44166;DHT22;30476;53.468;9.826;2024-01-30T05:03:54;8.30;99.90
44166;DHT22;30476;53.468;9.826;2024-01-30T05:06:26;8.40;99.90
44166;DHT22;30476;53.468;9.826;2024-01-30T05:08:52;8.40;99.90
44166;DHT22;30476;53.468;9.826;2024-01-30T05:11:18;8.40;99.90
44166;DHT22;30476;53.468;9.826;2024-01-30T05:13:44;8.40;99.90
44166;DHT22;30476;53.468;9.826;2024-01-30T05:16:10;8.40;99.90
44166;DHT22;30476;53.468;9.826;2024-01-30T05:18:35;8.40;99.90
44166;DHT22;30476;53.468;9.826;2024-01-30T05:21:02;8.40;99.90
44166;DHT22;30476;53.468;9.826;2024-01-30T05:23:28;8.40;99.90
44166;DHT22;30476;53.468;9.826;2024-01-30T05:25:54;8.40;99.90
44166;DHT22;30476;53.468;9.826;2024-01-30T05:28:19;8.40;99.90
44166;DHT22;30476;53.468;9.826;2024-01-30T05:30:45;8.40;99.90
44166;DHT22;30476;53.468;9.826;2024-01-30T05:33:11;8.40;99.90
44166;DHT22;30476;53.468;9.826;2024-01-30T05:35:38;8.40;99.90
44166;DHT22;30476;53.468;9.826;2024-01-30T05:38:04;8.40;99.90
44166;DHT22;30476;53.468;9.826;2024-01-30T05:40:30;8.40;99.90
44166;DHT22;30476;53.468;9.826;2024-01-30T05:42:56;8.40;99.90
44166;DHT22;30476;53.468;9.826;2024-01-30T05:45:26;8.40;99.90
44166;DHT22;30476;53.468;9.826;2024-01-30T05:47:53;8.40;99.90
44166;DHT22;30476;53.468;9.826;2024-01-30T05:50:19;8.40;99.90
44166;DHT22;30476;53.468;9.826;2024-01-30T05:52:45;8.40;99.90
44166;DHT22;30476;53.468;9.826;2024-01-30T05:55:12;8.40;99.90
44166;DHT22;30476;53.468;9.826;2024-01-30T05:57:38;8.40;99.90
44166;DHT22;30476;53.468;9.826;2024-01-30T06:00:05;8.40;99.90
44166;DHT22;30476;53.468;9.826;2024-01-30T06:02:31;8.40;99.90
44166;DHT22;30476;53.468;9.826;2024-01-30T06:04:58;8.40;99.90
44166;DHT22;30476;53.468;9.826;2024-01-30T06:07:24;8.40;99.90
44166;DHT22;30476;53.468;9.826;2024-01-30T06:09:50;8.40;99.90
44166;DHT22;30476;53.468;9.826;2024-01-30T06:12:16;8.40;99.90
44166;DHT22;30476;53.468;9.826;2024-01-30T06:14:41;8.40;99.90
44166;DHT22;30476;53.468;9.826;2024-01-30T06:17:08;8.40;99.90
44166;DHT22;30476;53.468;9.826;2024-01-30T06:19:34;8.50;99.90
44166;DHT22;30476;53.468;9.826;2024-01-30T06:22:00;8.50;99.90
44166;DHT22;30476;53.468;9.826;2024-01-30T06:24:26;8.50;99.90
44166;DHT22;30476;53.468;9.826;2024-01-30T06:26:53;8.50;99.90
44166;DHT22;30476;53.468;9.826;2024-01-30T06:29:19;8.50;99.90
44166;DHT22;30476;53.468;9.826;2024-01-30T06:31:45;8.50;99.90
44166;DHT22;30476;53.468;9.826;2024-01-30T06:34:11;8.60;99.90
44166;DHT22;30476;53.468;9.826;2024-01-30T06:36:37;8.60;99.90
44166;DHT22;30476;53.468;9.826;2024-01-30T06:39:04;8.60;99.90
44166;DHT22;30476;53.468;9.826;2024-01-30T06:41:30;8.60;99.90
44166;DHT22;30476;53.468;9.826;2024-01-30T06:43:56;8.60;99.90
44166;DHT22;30476;53.468;9.826;2024-01-30T06:46:22;8.70;99.90
44166;DHT22;30476;53.468;9.826;2024-01-30T06:48:48;8.70;99.90
44166;DHT22;30476;53.468;9.826;2024-01-30T06:51:13;8.70;99.90
44166;DHT22;30476;53.468;9.826;2024-01-30T06:53:39;8.70;99.90
44166;DHT22;30476;53.468;9.826;2024-01-30T06:56:06;8.70;99.90
44166;DHT22;30476;53.468;9.826;2024-01-30T06:58:31;8.80;99.90
44166;DHT22;30476;53.468;9.826;2024-01-30T07:00:58;8.70;99.90
44166;DHT22;30476;53.468;9.826;2024-01-30T07:03:24;8.80;99.90
44166;DHT22;30476;53.468;9.826;2024-01-30T07:05:50;8.80;99.90
44166;DHT22;30476;53.468;9.826;2024-01-30T07:08:16;8.70;99.90
44166;DHT22;30476;53.468;9.826;2024-01-30T07:10:46;8.80;99.90
44166;DHT22;30476;53.468;9.826;2024-01-30T07:13:12;8.80;99.90
44166;DHT22;30476;53.468;9.826;2024-01-30T07:15:37;8.80;99.90
44166;DHT22;30476;53.468;9.826;2024-01-30T07:18:04;8.80;99.90
44166;DHT22;30476;53.468;9.826;2024-01-30T07:20:30;8.70;99.90
44166;DHT22;30476;53.468;9.826;2024-01-30T07:23:00;8.80;99.90
44166;DHT22;30476;53.468;9.826;2024-01-30T07:25:26;8.80;99.90
44166;DHT22;30476;53.468;9.826;2024-01-30T07:27:53;8.80;99.90
44166;DHT22;30476;53.468;9.826;2024-01-30T07:30:19;8.80;99.90
44166;DHT22;30476;53.468;9.826;2024-01-30T07:32:46;8.80;99.90
44166;DHT22;30476;53.468;9.826;2024-01-30T07:35:13;8.80;99.90
44166;DHT22;30476;53.468;9.826;2024-01-30T07:37:39;8.80;99.90
44166;DHT22;30476;53.468;9.826;2024-01-30T07:40:05;8.80;99.90
44166;DHT22;30476;53.468;9.826;2024-01-30T07:42:32;8.80;99.90
44166;DHT22;30476;53.468;9.826;2024-01-30T07:45:00;8.70;99.90
44166;DHT22;30476;53.468;9.826;2024-01-30T07:47:26;8.80;99.90
44166;DHT22;30476;53.468;9.826;2024-01-30T07:49:52;8.80;99.90
44166;DHT22;30476;53.468;9.826;2024-01-30T07:52:18;8.80;99.90
44166;DHT22;30476;53.468;9.826;2024-01-30T07:54:44;8.80;99.90
44166;DHT22;30476;53.468;9.826;2024-01-30T07:57:09;8.80;99.90
44166;DHT22;30476;53.468;9.826;2024-01-30T07:59:35;8.80;99.90
44166;DHT22;30476;53.468;9.826;2024-01-30T08:02:01;8.90;99.90
44166;DHT22;30476;53.468;9.826;2024-01-30T08:04:27;8.90;99.90
44166;DHT22;30476;53.468;9.826;2024-01-30T08:06:52;8.90;99.90
44166;DHT22;30476;53.468;9.826;2024-01-30T08:09:18;9.00;99.90
44166;DHT22;30476;53.468;9.826;2024-01-30T08:11:44;8.90;99.90
44166;DHT22;30476;53.468;9.826;2024-01-30T08:14:10;9.00;99.90
44166;DHT22;30476;53.468;9.826;2024-01-30T08:16:35;9.00;99.90
44166;DHT22;30476;53.468;9.826;2024-01-30T08:19:01;9.00;99.90
44166;DHT22;30476;53.468;9.826;2024-01-30T08:21:27;9.00;99.90
44166;DHT22;30476;53.468;9.826;2024-01-30T08:23:53;9.00;99.90
44166;DHT22;30476;53.468;9.826;2024-01-30T08:26:18;9.10;99.90
44166;DHT22;30476;53.468;9.826;2024-01-30T08:28:44;9.10;99.90
44166;DHT22;30476;53.468;9.826;2024-01-30T08:31:10;9.10;99.90
44166;DHT22;30476;53.468;9.826;2024-01-30T08:33:37;9.10;99.90
44166;DHT22;30476;53.468;9.826;2024-01-30T08:36:03;9.10;99.90
44166;DHT22;30476;53.468;9.826;2024-01-30T08:38:29;9.10;99.90
44166;DHT22;30476;53.468;9.826;2024-01-30T08:40:56;9.10;99.90
44166;DHT22;30476;53.468;9.826;2024-01-30T08:43:21;9.20;99.90
44166;DHT22;30476;53.468;9.826;2024-01-30T08:45:47;9.10;99.90
44166;DHT22;30476;53.468;9.826;2024-01-30T08:48:13;9.20;99.90
44166;DHT22;30476;53.468;9.826;2024-01-30T08:50:38;9.20;99.90
44166;DHT22;30476;53.468;9.826;2024-01-30T08:53:04;9.20;99.90
44166;DHT22;30476;53.468;9.826;2024-01-30T08:55:30;9.20;99.90
44166;DHT22;30476;53.468;9.826;2024-01-30T08:57:56;9.30;99.90
44166;DHT22;30476;53.468;9.826;2024-01-30T09:00:22;9.30;99.90
44166;DHT22;30476;53.468;9.826;2024-01-30T09:02:47;9.30;99.90
44166;DHT22;30476;53.468;9.826;2024-01-30T09:05:13;9.40;99.90
44166;DHT22;30476;53.468;9.826;2024-01-30T09:07:39;9.40;99.90
44166;DHT22;30476;53.468;9.826;2024-01-30T09:10:05;9.50;99.90
44166;DHT22;30476;53.468;9.826;2024-01-30T09:12:31;9.60;99.90
44166;DHT22;30476;53.468;9.826;2024-01-30T09:14:57;9.60;99.90
44166;DHT22;30476;53.468;9.826;2024-01-30T09:17:23;9.60;99.90
44166;DHT22;30476;53.468;9.826;2024-01-30T09:19:49;9.60;99.90
44166;DHT22;30476;53.468;9.826;2024-01-30T09:22:14;9.70;99.90
44166;DHT22;30476;53.468;9.826;2024-01-30T09:24:40;9.70;99.90
44166;DHT22;30476;53.468;9.826;2024-01-30T09:27:06;9.70;99.90
44166;DHT22;30476;53.468;9.826;2024-01-30T09:29:32;9.70;99.90
44166;DHT22;30476;53.468;9.826;2024-01-30T09:32:00;9.80;99.90
44166;DHT22;30476;53.468;9.826;2024-01-30T09:34:26;9.80;99.90
44166;DHT22;30476;53.468;9.826;2024-01-30T09:36:51;9.80;99.90
44166;DHT22;30476;53.468;9.826;2024-01-30T09:39:17;9.80;99.90
44166;DHT22;30476;53.468;9.826;2024-01-30T09:44:28;9.80;99.90
44166;DHT22;30476;53.468;9.826;2024-01-30T09:46:55;9.80;99.90
44166;DHT22;30476;53.468;9.826;2024-01-30T09:49:22;9.80;99.90
44166;DHT22;30476;53.468;9.826;2024-01-30T09:51:50;9.80;99.90
44166;DHT22;30476;53.468;9.826;2024-01-30T09:54:16;9.80;99.90
44166;DHT22;30476;53.468;9.826;2024-01-30T09:56:43;9.80;99.90
44166;DHT22;30476;53.468;9.826;2024-01-30T09:59:09;9.80;99.90
44166;DHT22;30476;53.468;9.826;2024-01-30T10:01:35;9.80;99.90
44166;DHT22;30476;53.468;9.826;2024-01-30T10:04:02;9.80;99.90
44166;DHT22;30476;53.468;9.826;2024-01-30T10:06:29;9.80;99.90
44166;DHT22;30476;53.468;9.826;2024-01-30T10:08:55;9.90;99.90
44166;DHT22;30476;53.468;9.826;2024-01-30T10:11:20;9.90;99.90
44166;DHT22;30476;53.468;9.826;2024-01-30T10:13:47;9.90;99.90
44166;DHT22;30476;53.468;9.826;2024-01-30T10:16:16;9.90;99.90
44166;DHT22;30476;53.468;9.826;2024-01-30T10:18:42;10.00;99.90
44166;DHT22;30476;53.468;9.826;2024-01-30T10:21:08;10.00;99.90
44166;DHT22;30476;53.468;9.826;2024-01-30T10:23:36;10.00;99.90
44166;DHT22;30476;53.468;9.826;2024-01-30T10:26:03;10.10;99.90
44166;DHT22;30476;53.468;9.826;2024-01-30T10:28:29;10.10;99.90
44166;DHT22;30476;53.468;9.826;2024-01-30T10:31:02;10.10;99.90
44166;DHT22;30476;53.468;9.826;2024-01-30T10:33:32;10.10;99.90
44166;DHT22;30476;53.468;9.826;2024-01-30T10:36:01;10.20;99.90
44166;DHT22;30476;53.468;9.826;2024-01-30T10:38:31;10.20;99.90
44166;DHT22;30476;53.468;9.826;2024-01-30T10:40:59;10.20;99.90
44166;DHT22;30476;53.468;9.826;2024-01-30T10:43:50;10.30;99.90
44166;DHT22;30476;53.468;9.826;2024-01-30T10:46:20;10.30;99.90
44166;DHT22;30476;53.468;9.826;2024-01-30T10:48:52;10.40;99.90
44166;DHT22;30476;53.468;9.826;2024-01-30T10:51:22;10.40;99.90
44166;DHT22;30476;53.468;9.826;2024-01-30T10:53:49;10.50;99.90
44166;DHT22;30476;53.468;9.826;2024-01-30T10:56:16;10.50;99.90
44166;DHT22;30476;53.468;9.826;2024-01-30T10:58:42;10.50;99.90
44166;DHT22;30476;53.468;9.826;2024-01-30T11:01:09;10.50;99.90
44166;DHT22;30476;53.468;9.826;2024-01-30T11:03:35;10.60;99.90
44166;DHT22;30476;53.468;9.826;2024-01-30T11:06:02;10.60;99.90
44166;DHT22;30476;53.468;9.826;2024-01-30T11:08:31;10.60;99.90
44166;DHT22;30476;53.468;9.826;2024-01-30T11:10:58;10.60;99.90
44166;DHT22;30476;53.468;9.826;2024-01-30T11:13:30;10.70;99.90
44166;DHT22;30476;53.468;9.826;2024-01-30T11:16:06;10.80;99.90
44166;DHT22;30476;53.468;9.826;2024-01-30T11:18:33;10.80;99.90
44166;DHT22;30476;53.468;9.826;2024-01-30T11:21:01;10.80;99.90
44166;DHT22;30476;53.468;9.826;2024-01-30T11:23:33;10.80;99.90
44166;DHT22;30476;53.468;9.826;2024-01-30T11:25:59;10.80;99.90
44166;DHT22;30476;53.468;9.826;2024-01-30T11:28:32;10.80;99.90
44166;DHT22;30476;53.468;9.826;2024-01-30T11:31:05;10.80;99.90
44166;DHT22;30476;53.468;9.826;2024-01-30T11:33:32;10.90;99.90
44166;DHT22;30476;53.468;9.826;2024-01-30T11:36:00;10.90;99.90
44166;DHT22;30476;53.468;9.826;2024-01-30T11:38:27;10.80;99.90
44166;DHT22;30476;53.468;9.826;2024-01-30T11:40:54;10.90;99.90
44166;DHT22;30476;53.468;9.826;2024-01-30T11:43:22;10.80;99.90
44166;DHT22;30476;53.468;9.826;2024-01-30T11:45:48;10.90;99.90
44166;DHT22;30476;53.468;9.826;2024-01-30T11:48:14;10.90;99.90
44166;DHT22;30476;53.468;9.826;2024-01-30T11:50:40;10.90;99.90
44166;DHT22;30476;53.468;9.826;2024-01-30T11:53:06;10.90;99.90
44166;DHT22;30476;53.468;9.826;2024-01-30T11:55:33;10.90;99.90
44166;DHT22;30476;53.468;9.826;2024-01-30T11:57:59;10.90;99.90
44166;DHT22;30476;53.468;9.826;2024-01-30T12:00:25;10.90;99.90
44166;DHT22;30476;53.468;9.826;2024-01-30T12:02:52;10.90;99.90
44166;DHT22;30476;53.468;9.826;2024-01-30T12:05:24;10.90;99.90
44166;DHT22;30476;53.468;9.826;2024-01-30T12:07:50;10.90;99.90
44166;DHT22;30476;53.468;9.826;2024-01-30T12:10:17;10.90;99.90
44166;DHT22;30476;53.468;9.826;2024-01-30T12:12:47;11.00;99.90
44166;DHT22;30476;53.468;9.826;2024-01-30T12:15:14;11.00;99.90
44166;DHT22;30476;53.468;9.826;2024-01-30T12:17:40;11.00;99.90
44166;DHT22;30476;53.468;9.826;2024-01-30T12:20:13;11.00;99.90
44166;DHT22;30476;53.468;9.826;2024-01-30T12:22:44;11.00;99.90
44166;DHT22;30476;53.468;9.826;2024-01-30T12:25:11;11.00;99.90
44166;DHT22;30476;53.468;9.826;2024-01-30T12:27:37;11.10;99.90
44166;DHT22;30476;53.468;9.826;2024-01-30T12:30:07;11.00;99.90
44166;DHT22;30476;53.468;9.826;2024-01-30T12:32:38;11.00;99.90
44166;DHT22;30476;53.468;9.826;2024-01-30T12:35:08;11.00;99.90
44166;DHT22;30476;53.468;9.826;2024-01-30T12:37:34;11.00;99.90
44166;DHT22;30476;53.468;9.826;2024-01-30T12:40:01;11.10;99.90
44166;DHT22;30476;53.468;9.826;2024-01-30T12:42:27;11.10;99.90
44166;DHT22;30476;53.468;9.826;2024-01-30T12:44:53;11.10;99.90
44166;DHT22;30476;53.468;9.826;2024-01-30T12:47:21;11.10;99.90
44166;DHT22;30476;53.468;9.826;2024-01-30T12:49:47;11.10;99.90
44166;DHT22;30476;53.468;9.826;2024-01-30T12:52:16;11.10;99.90
44166;DHT22;30476;53.468;9.826;2024-01-30T12:54:42;11.10;99.90
44166;DHT22;30476;53.468;9.826;2024-01-30T12:57:07;11.10;99.90
44166;DHT22;30476;53.468;9.826;2024-01-30T12:59:33;11.10;99.90
44166;DHT22;30476;53.468;9.826;2024-01-30T13:02:00;11.10;99.90
44166;DHT22;30476;53.468;9.826;2024-01-30T13:04:27;11.10;99.90
44166;DHT22;30476;53.468;9.826;2024-01-30T13:06:53;11.10;99.90
44166;DHT22;30476;53.468;9.826;2024-01-30T13:09:19;11.10;99.90
44166;DHT22;30476;53.468;9.826;2024-01-30T13:11:45;11.10;99.90
44166;DHT22;30476;53.468;9.826;2024-01-30T13:14:11;11.10;99.90
44166;DHT22;30476;53.468;9.826;2024-01-30T13:16:37;11.10;99.90
44166;DHT22;30476;53.468;9.826;2024-01-30T13:19:02;11.10;99.90
44166;DHT22;30476;53.468;9.826;2024-01-30T13:21:28;11.20;99.90
44166;DHT22;30476;53.468;9.826;2024-01-30T13:23:54;11.20;99.90
44166;DHT22;30476;53.468;9.826;2024-01-30T13:26:21;11.20;99.90
44166;DHT22;30476;53.468;9.826;2024-01-30T13:28:47;11.20;99.90
44166;DHT22;30476;53.468;9.826;2024-01-30T13:31:14;11.20;99.90
44166;DHT22;30476;53.468;9.826;2024-01-30T13:33:40;11.20;99.90
44166;DHT22;30476;53.468;9.826;2024-01-30T13:36:07;11.20;99.90
44166;DHT22;30476;53.468;9.826;2024-01-30T13:38:34;11.20;99.90
44166;DHT22;30476;53.468;9.826;2024-01-30T13:41:00;11.20;99.90
44166;DHT22;30476;53.468;9.826;2024-01-30T13:43:26;11.20;99.90
44166;DHT22;30476;53.468;9.826;2024-01-30T13:45:52;11.20;99.90
44166;DHT22;30476;53.468;9.826;2024-01-30T13:48:18;11.20;99.90
44166;DHT22;30476;53.468;9.826;2024-01-30T13:50:43;11.30;99.90
44166;DHT22;30476;53.468;9.826;2024-01-30T13:53:10;11.30;99.90
44166;DHT22;30476;53.468;9.826;2024-01-30T13:55:35;11.30;99.90
44166;DHT22;30476;53.468;9.826;2024-01-30T13:58:01;11.30;99.90
44166;DHT22;30476;53.468;9.826;2024-01-30T14:00:27;11.30;99.90
44166;DHT22;30476;53.468;9.826;2024-01-30T14:02:53;11.30;99.90
44166;DHT22;30476;53.468;9.826;2024-01-30T14:05:23;11.30;99.90
44166;DHT22;30476;53.468;9.826;2024-01-30T14:07:50;11.30;99.90
44166;DHT22;30476;53.468;9.826;2024-01-30T14:10:16;11.30;99.90
44166;DHT22;30476;53.468;9.826;2024-01-30T14:12:42;11.30;99.90
44166;DHT22;30476;53.468;9.826;2024-01-30T14:15:10;11.30;99.90
44166;DHT22;30476;53.468;9.826;2024-01-30T14:17:36;11.30;99.90
44166;DHT22;30476;53.468;9.826;2024-01-30T14:20:06;11.30;99.90
44166;DHT22;30476;53.468;9.826;2024-01-30T14:22:33;11.30;99.90
44166;DHT22;30476;53.468;9.826;2024-01-30T14:25:00;11.30;99.90
44166;DHT22;30476;53.468;9.826;2024-01-30T14:27:26;11.40;99.90
44166;DHT22;30476;53.468;9.826;2024-01-30T14:29:51;11.30;99.90
44166;DHT22;30476;53.468;9.826;2024-01-30T14:32:17;11.40;99.90
44166;DHT22;30476;53.468;9.826;2024-01-30T14:34:43;11.40;99.90
44166;DHT22;30476;53.468;9.826;2024-01-30T14:37:09;11.40;99.90
44166;DHT22;30476;53.468;9.826;2024-01-30T14:39:34;11.40;99.90
44166;DHT22;30476;53.468;9.826;2024-01-30T14:42:03;11.40;99.90
44166;DHT22;30476;53.468;9.826;2024-01-30T14:44:29;11.40;99.90
44166;DHT22;30476;53.468;9.826;2024-01-30T14:46:54;11.40;99.90
44166;DHT22;30476;53.468;9.826;2024-01-30T14:49:20;11.40;99.90
44166;DHT22;30476;53.468;9.826;2024-01-30T14:51:46;11.40;99.90
44166;DHT22;30476;53.468;9.826;2024-01-30T14:54:12;11.40;99.90
44166;DHT22;30476;53.468;9.826;2024-01-30T14:56:38;11.40;99.90
44166;DHT22;30476;53.468;9.826;2024-01-30T14:59:03;11.40;99.90
44166;DHT22;30476;53.468;9.826;2024-01-30T15:01:29;11.40;99.90
44166;DHT22;30476;53.468;9.826;2024-01-30T15:03:55;11.40;99.90
44166;DHT22;30476;53.468;9.826;2024-01-30T15:06:21;11.40;99.90
44166;DHT22;30476;53.468;9.826;2024-01-30T15:08:53;11.40;99.90
44166;DHT22;30476;53.468;9.826;2024-01-30T15:11:18;11.40;99.90
44166;DHT22;30476;53.468;9.826;2024-01-30T15:13:44;11.40;99.90
44166;DHT22;30476;53.468;9.826;2024-01-30T15:16:10;11.40;99.90
44166;DHT22;30476;53.468;9.826;2024-01-30T15:18:36;11.40;99.90
44166;DHT22;30476;53.468;9.826;2024-01-30T15:21:02;11.40;99.90
44166;DHT22;30476;53.468;9.826;2024-01-30T15:23:28;11.40;99.90
44166;DHT22;30476;53.468;9.826;2024-01-30T15:25:54;11.40;99.90
44166;DHT22;30476;53.468;9.826;2024-01-30T15:28:33;11.40;99.90
44166;DHT22;30476;53.468;9.826;2024-01-30T15:30:59;11.40;99.90
44166;DHT22;30476;53.468;9.826;2024-01-30T15:33:26;11.40;99.90
44166;DHT22;30476;53.468;9.826;2024-01-30T15:35:51;11.40;99.90
44166;DHT22;30476;53.468;9.826;2024-01-30T15:38:19;11.40;99.90